Aviation Digital Data Service (ADDS)

Output produced by TAFs form (1705 UTC 29 May 2017)
found at http://www.aviationweather.gov/adds/tafs/
 
Forecast for: RJCM (MEMAMBETSU AIRPO, JP)
Text: TAF RJCM 291113Z 2912/3018 17004KT 9999 FEW030 SCT050
Forecast period: 1200 UTC 29 May 2017 to 0000 UTC 30 May 2017
Forecast type: FROM: standard forecast or significant change
Winds: from the S (170 degrees) at 5 MPH (4 knots; 2.1 m/s)
Visibility: 6 or more miles (10+ km)
Clouds: few clouds at 3000 feet AGL
scattered clouds at 5000 feet AGL
Weather: no significant weather forecast for this period
Text: BECMG 3000/3003 06010KT
Forecast period: 0000 to 0900 UTC 30 May 2017
Forecast type: BECOMING: Conditions expected to become as follows by 0300 UTC 30 May 2017
Winds: from the ENE (60 degrees) at 12 MPH (10 knots; 5.2 m/s)
Visibility: 6 or more miles (10+ km)
Clouds: few clouds at 3000 feet AGL
scattered clouds at 5000 feet AGL
Weather: no significant weather forecast for this period
Text: BECMG 3009/3012 20007KT
Forecast period: 0900 to 1800 UTC 30 May 2017
Forecast type: BECOMING: Conditions expected to become as follows by 1200 UTC 30 May 2017
Winds: from the SSW (200 degrees) at 8 MPH (7 knots; 3.6 m/s)
Visibility: 6 or more miles (10+ km)
Clouds: few clouds at 3000 feet AGL
scattered clouds at 5000 feet AGL
Weather: no significant weather forecast for this period